LZKZ/KSC METAR and TAF weather

Enter ICAO airport designator
Station Type Date Time Source
LZKZ METAR 2019/06/18 15:00 UTC NOAA

LZKZ 181500Z 03003KT 340V110 9999 SCT048 26/17 Q1016 NOSIG


Station Type Date Time Source
LZKZ Decoded METAR 2019/06/18 15:00 UTC NOAA

Kosice, Barca, Slovakia (LZKZ) 48-39-47N 021-14-28E
Jun 18, 2019 - 11:00 AM EDT / 2019.06.18 1500 UTC
Wind: from the NNE (030 degrees) at 3 MPH (3 KT) (direction variable):0
Visibility: greater than 7 mile(s):0
Sky conditions: partly cloudy
Temperature: 78 F (26 C)
Dew Point: 62 F (17 C)
Relative Humidity: 57%
Pressure (altimeter): 30.00 in. Hg (1016 hPa)
ob: LZKZ 181500Z 03003KT 340V110 9999 SCT048 26/17 Q1016 NOSIG
cycle: 15

Station Type Date Time Source
LZKZ TAF 2019/06/18 12:57 UTC NOAA

TAF LZKZ 181100Z 1812/1912 03007KT 9999 SCT040 PROB40
TEMPO 1812/1818 9999 -SHRA SCT045TCU
TEMPO 1818/1906 34015KT 7000 TSRA FEW040CB BKN050

Example: see airport list